Time;durP1;ratioP1;P1;durP2;ratioP2;P2;SDS_P1;SDS_P2;PMS_P1;PMS_P2;Temp;Humidity;BMP_temperature;BMP_pressure;BME280_temperature;BME280_humidity;BME280_pressure;Samples;Min_cycle;Max_cycle;Signal;HPM_P1;HPM_P2
2021/12/29 00:00:23;;;;;;;23.08;7.50;;;7.20;99.90;;;;;;5092743;28;20028;-55
2021/12/29 00:02:49;;;;;;;20.10;7.13;;;7.10;99.90;;;;;;5092746;28;20039;-56
2021/12/29 00:05:16;;;;;;;25.80;6.32;;;7.10;99.90;;;;;;5092303;28;20123;-57
2021/12/29 00:07:41;;;;;;;23.30;7.07;;;7.10;99.90;;;;;;5073449;28;20042;-54
2021/12/29 00:10:08;;;;;;;14.73;6.03;;;7.10;99.90;;;;;;5092631;28;20040;-57
2021/12/29 00:12:40;;;;;;;15.52;5.95;;;7.10;99.90;;;;;;5092622;28;20377;-55
2021/12/29 00:15:10;;;;;;;19.63;6.82;;;7.10;99.90;;;;;;5092652;28;20405;-57
2021/12/29 00:17:39;;;;;;;18.95;6.18;;;7.10;99.90;;;;;;5091968;28;20040;-56
2021/12/29 00:20:06;;;;;;;17.75;7.10;;;7.00;99.90;;;;;;5092490;28;20068;-54
2021/12/29 00:22:31;;;;;;;18.02;7.07;;;7.00;99.90;;;;;;5092145;28;20043;-52
2021/12/29 00:24:57;;;;;;;20.23;7.43;;;7.00;99.90;;;;;;5092653;28;20090;-55
2021/12/29 00:27:23;;;;;;;19.17;6.33;;;7.00;99.90;;;;;;5073622;28;20119;-55
2021/12/29 00:29:48;;;;;;;16.30;6.32;;;7.00;99.90;;;;;;5092225;28;20398;-52
2021/12/29 00:32:14;;;;;;;13.27;6.10;;;7.00;99.90;;;;;;5091388;28;20043;-54
2021/12/29 00:34:40;;;;;;;15.37;5.87;;;7.00;99.90;;;;;;5087979;28;20810;-57
2021/12/29 00:37:05;;;;;;;10.40;4.83;;;6.90;99.90;;;;;;5091378;28;20047;-55
2021/12/29 00:39:31;;;;;;;13.53;5.07;;;6.90;99.90;;;;;;5073810;28;20035;-56
2021/12/29 00:41:57;;;;;;;10.73;3.73;;;6.90;99.90;;;;;;5091920;28;20373;-56
2021/12/29 00:44:24;;;;;;;11.77;4.60;;;6.90;99.90;;;;;;5074369;28;20504;-53
2021/12/29 00:46:53;;;;;;;19.02;5.32;;;6.90;99.90;;;;;;5091687;28;20036;-53
2021/12/29 00:49:20;;;;;;;14.10;5.95;;;6.90;99.90;;;;;;5073568;28;20083;-54
2021/12/29 00:51:46;;;;;;;18.33;6.07;;;6.90;99.90;;;;;;5092000;28;20048;-54
2021/12/29 00:54:12;;;;;;;20.50;6.07;;;6.90;99.90;;;;;;5091770;28;20040;-52
2021/12/29 00:56:38;;;;;;;24.37;6.60;;;6.90;99.90;;;;;;5091483;28;20374;-58
2021/12/29 00:59:04;;;;;;;15.07;5.80;;;6.90;99.90;;;;;;5091559;28;20516;-51
2021/12/29 01:01:30;;;;;;;14.70;6.10;;;6.90;99.90;;;;;;5091825;28;20050;-52
2021/12/29 01:03:56;;;;;;;16.98;5.68;;;6.90;99.90;;;;;;5091183;28;20405;-55
2021/12/29 01:06:22;;;;;;;16.55;5.65;;;6.90;99.90;;;;;;5091293;28;20043;-54
2021/12/29 01:08:48;;;;;;;22.60;6.25;;;6.90;99.90;;;;;;5090645;28;20044;-56
2021/12/29 01:11:14;;;;;;;23.23;7.97;;;6.90;99.90;;;;;;5091809;28;20113;-55
2021/12/29 01:13:46;;;;;;;24.92;7.57;;;6.90;99.90;;;;;;5073078;28;20043;-54
2021/12/29 01:16:54;;;;;;;22.15;7.30;;;6.90;99.90;;;;;;5091039;28;20043;-54
2021/12/29 01:19:06;;;;;;;28.48;7.72;;;6.90;99.90;;;;;;5062352;28;20047;-55
2021/12/29 01:21:33;;;;;;;33.75;8.73;;;7.00;99.90;;;;;;5091369;28;20040;-55
2021/12/29 01:24:00;;;;;;;33.47;9.02;;;7.00;99.90;;;;;;5091013;28;20043;-52
2021/12/29 01:26:25;;;;;;;34.35;10.27;;;7.00;99.90;;;;;;5090826;28;20028;-53
2021/12/29 01:28:51;;;;;;;39.60;9.57;;;7.00;99.90;;;;;;5090969;28;20585;-54
2021/12/29 01:31:17;;;;;;;38.10;9.57;;;7.00;99.90;;;;;;5090989;28;20051;-51
2021/12/29 01:33:42;;;;;;;46.00;10.07;;;7.00;99.90;;;;;;5091095;28;20047;-52
2021/12/29 01:36:08;;;;;;;35.60;9.88;;;7.00;99.90;;;;;;5090712;28;20043;-53
2021/12/29 01:38:34;;;;;;;47.10;12.77;;;7.00;99.90;;;;;;5091493;28;20078;-51
2021/12/29 01:40:59;;;;;;;45.33;10.87;;;7.00;99.90;;;;;;5091004;28;20283;-52
2021/12/29 01:43:25;;;;;;;41.35;10.18;;;7.00;99.90;;;;;;5056079;28;20054;-54
2021/12/29 01:45:51;;;;;;;45.27;10.00;;;7.00;99.90;;;;;;5090105;28;20130;-53
2021/12/29 01:48:17;;;;;;;40.50;9.23;;;7.00;99.90;;;;;;5091096;28;20382;-53
2021/12/29 01:50:48;;;;;;;50.95;10.65;;;7.00;99.90;;;;;;5090663;28;20277;-54
2021/12/29 01:53:22;;;;;;;52.70;11.82;;;7.10;99.90;;;;;;5072982;28;20084;-56
2021/12/29 01:55:48;;;;;;;52.28;12.23;;;7.10;99.90;;;;;;5090159;28;20412;-56
2021/12/29 01:58:14;;;;;;;55.38;11.68;;;7.10;99.90;;;;;;5090439;28;20032;-54
2021/12/29 02:00:41;;;;;;;57.42;11.63;;;7.10;99.90;;;;;;5090583;28;20036;-53
2021/12/29 02:03:08;;;;;;;50.10;10.95;;;7.10;99.90;;;;;;5090719;28;20389;-51
2021/12/29 02:05:39;;;;;;;68.18;12.85;;;7.10;99.90;;;;;;5100563;28;20416;-53
2021/12/29 02:08:06;;;;;;;64.85;12.70;;;7.10;99.90;;;;;;5110416;28;20035;-51
2021/12/29 02:10:37;;;;;;;66.13;13.13;;;7.10;99.90;;;;;;5094805;28;20059;-54
2021/12/29 02:13:03;;;;;;;70.68;13.23;;;7.10;99.90;;;;;;5072245;28;20055;-54
2021/12/29 02:15:28;;;;;;;59.08;12.85;;;7.10;99.90;;;;;;5097706;28;20034;-54
2021/12/29 02:17:54;;;;;;;53.43;11.53;;;7.10;99.90;;;;;;5110480;28;20039;-55
2021/12/29 02:20:21;;;;;;;55.45;11.43;;;7.20;99.90;;;;;;5078852;28;20032;-52
2021/12/29 02:23:01;;;;;;;42.72;9.35;;;7.20;99.90;;;;;;5094716;28;20036;-53
2021/12/29 02:25:46;;;;;;;48.22;10.50;;;7.20;99.90;;;;;;5108038;28;20647;-55
2021/12/29 02:28:13;;;;;;;45.58;9.70;;;7.20;99.90;;;;;;5062590;28;20385;-55
2021/12/29 02:30:39;;;;;;;48.05;10.80;;;7.20;99.90;;;;;;5095874;28;20032;-55
2021/12/29 02:33:06;;;;;;;43.35;10.68;;;7.20;99.90;;;;;;5071766;28;20054;-54
2021/12/29 02:35:33;;;;;;;47.05;12.05;;;7.20;99.90;;;;;;5098259;28;20063;-52
2021/12/29 02:38:00;;;;;;;48.63;11.02;;;7.20;99.90;;;;;;5093413;28;20526;-51
2021/12/29 02:40:28;;;;;;;41.35;9.07;;;7.20;99.90;;;;;;5090332;28;20063;-52
2021/12/29 02:42:54;;;;;;;43.97;9.55;;;7.20;99.90;;;;;;5090047;28;20043;-51
2021/12/29 02:45:22;;;;;;;40.80;9.83;;;7.10;99.90;;;;;;5090280;28;20043;-51
2021/12/29 02:47:48;;;;;;;53.10;10.55;;;7.20;99.90;;;;;;5089719;28;20405;-53
2021/12/29 02:50:15;;;;;;;38.33;9.75;;;7.20;99.90;;;;;;5089806;28;20032;-53
2021/12/29 02:52:43;;;;;;;38.42;9.70;;;7.20;99.90;;;;;;5090353;28;20047;-54
2021/12/29 02:55:09;;;;;;;42.88;10.13;;;7.20;99.90;;;;;;5071606;28;20051;-55
2021/12/29 02:57:35;;;;;;;42.35;11.18;;;7.20;99.90;;;;;;5089770;28;20036;-55
2021/12/29 03:00:00;;;;;;;39.08;11.32;;;7.30;99.90;;;;;;5072178;28;20093;-55
2021/12/29 03:02:26;;;;;;;33.27;10.83;;;7.30;99.90;;;;;;5090067;28;20039;-55
2021/12/29 03:04:53;;;;;;;32.20;10.03;;;7.30;99.90;;;;;;5071732;28;20044;-55
2021/12/29 03:07:18;;;;;;;36.28;10.55;;;7.40;99.90;;;;;;5089850;28;20079;-55
2021/12/29 03:09:44;;;;;;;38.30;11.53;;;7.30;99.90;;;;;;5092590;28;20110;-55
2021/12/29 03:12:10;;;;;;;32.87;11.23;;;7.40;99.90;;;;;;5109934;28;20092;-54
2021/12/29 03:14:35;;;;;;;37.53;12.93;;;7.40;99.90;;;;;;5108693;28;20039;-56
2021/12/29 03:17:01;;;;;;;45.37;14.87;;;7.40;99.90;;;;;;5096690;28;20043;-54
2021/12/29 03:19:26;;;;;;;48.60;15.97;;;7.50;99.90;;;;;;5089445;28;20496;-54
2021/12/29 03:21:52;;;;;;;50.40;17.37;;;7.50;99.90;;;;;;5091208;28;20047;-54
2021/12/29 03:24:21;;;;;;;49.70;17.90;;;7.50;99.90;;;;;;5090002;28;20123;-55
2021/12/29 03:26:47;;;;;;;53.35;18.25;;;7.60;99.90;;;;;;5106169;28;20050;-56
2021/12/29 03:29:12;;;;;;;51.57;19.77;;;7.60;99.90;;;;;;5108432;28;20032;-55
2021/12/29 03:31:39;;;;;;;73.00;23.73;;;7.60;99.90;;;;;;5096415;28;20298;-55
2021/12/29 03:34:06;;;;;;;64.82;21.35;;;7.60;99.90;;;;;;5093091;28;20069;-56
2021/12/29 03:36:32;;;;;;;62.25;21.92;;;7.60;99.90;;;;;;5102285;28;20507;-54
2021/12/29 03:38:57;;;;;;;70.43;23.40;;;7.60;99.90;;;;;;5096322;28;20036;-54
2021/12/29 03:41:24;;;;;;;66.90;22.43;;;7.70;99.90;;;;;;5093108;28;20497;-52
2021/12/29 03:43:50;;;;;;;63.92;21.30;;;7.70;99.90;;;;;;5093156;28;20129;-55
2021/12/29 03:46:16;;;;;;;62.25;22.25;;;7.70;99.90;;;;;;5092451;28;20043;-53
2021/12/29 03:48:44;;;;;;;73.28;23.25;;;7.70;99.90;;;;;;5092822;28;20400;-55
2021/12/29 03:51:10;;;;;;;71.57;23.83;;;7.70;99.90;;;;;;5093184;28;20059;-53
2021/12/29 03:53:37;;;;;;;74.35;23.88;;;7.80;99.90;;;;;;5093048;28;20520;-53
2021/12/29 03:56:04;;;;;;;85.65;25.50;;;7.70;99.90;;;;;;5092569;28;20044;-54
2021/12/29 03:58:30;;;;;;;73.30;24.77;;;7.80;99.90;;;;;;5092755;28;20061;-54
2021/12/29 04:01:02;;;;;;;69.20;22.40;;;7.80;99.90;;;;;;5092885;28;20311;-52
2021/12/29 04:03:28;;;;;;;73.68;23.17;;;7.70;99.90;;;;;;5074485;28;20067;-54
2021/12/29 04:05:53;;;;;;;65.17;22.37;;;7.80;99.90;;;;;;5092653;28;20074;-52
2021/12/29 04:08:19;;;;;;;57.03;20.67;;;7.70;99.90;;;;;;5092714;28;20036;-56
2021/12/29 04:10:45;;;;;;;62.13;20.58;;;7.80;99.90;;;;;;5094854;28;20270;-55
2021/12/29 04:13:11;;;;;;;53.97;19.58;;;7.70;99.90;;;;;;5093039;28;20036;-52
2021/12/29 04:15:38;;;;;;;60.30;19.33;;;7.80;99.90;;;;;;5112430;28;20061;-55
2021/12/29 04:18:14;;;;;;;52.72;19.08;;;7.80;99.90;;;;;;5092445;28;20063;-57
2021/12/29 04:20:54;;;;;;;43.50;17.20;;;7.80;99.90;;;;;;5113129;28;20392;-51
2021/12/29 04:23:24;;;;;;;43.80;17.65;;;7.80;99.90;;;;;;5093932;28;20134;-54
2021/12/29 04:25:53;;;;;;;39.03;16.45;;;7.70;99.90;;;;;;5102447;28;20097;-55
2021/12/29 04:28:20;;;;;;;41.85;16.63;;;7.70;99.90;;;;;;5073853;28;20544;-55
2021/12/29 04:30:47;;;;;;;41.10;15.40;;;7.70;99.90;;;;;;5092426;28;20062;-55
2021/12/29 04:33:14;;;;;;;37.55;16.67;;;7.70;99.90;;;;;;5106650;28;20036;-54
2021/12/29 04:35:40;;;;;;;40.28;16.20;;;7.70;99.90;;;;;;5097354;28;20645;-54
2021/12/29 04:38:06;;;;;;;;;;;7.70;99.90;;;;;;5099616;28;20047;-54
2021/12/29 04:40:32;;;;;;;42.78;16.17;;;7.70;99.90;;;;;;5091803;28;19915;-55
2021/12/29 04:42:58;;;;;;;31.42;14.35;;;7.70;99.90;;;;;;5092066;28;20051;-52
2021/12/29 04:45:23;;;;;;;42.40;15.65;;;7.70;99.90;;;;;;5091691;28;20036;-54
2021/12/29 04:47:50;;;;;;;36.17;15.93;;;7.70;99.90;;;;;;5091738;28;20055;-54
2021/12/29 04:50:27;;;;;;;34.80;16.00;;;7.70;99.90;;;;;;5091796;28;20150;-53
2021/12/29 04:52:56;;;;;;;37.85;16.75;;;7.70;99.90;;;;;;5073750;28;20497;-56
2021/12/29 04:55:22;;;;;;;50.65;17.98;;;7.70;99.90;;;;;;5091344;28;20071;-53
2021/12/29 04:57:48;;;;;;;48.08;18.55;;;7.70;99.90;;;;;;5091486;28;20567;-53
2021/12/29 05:00:15;;;;;;;44.13;18.20;;;7.70;99.90;;;;;;5091613;28;20032;-55
2021/12/29 05:02:41;;;;;;;46.58;19.20;;;7.70;99.90;;;;;;5091803;28;20051;-54
2021/12/29 05:05:19;;;;;;;;;;;7.70;99.90;;;;;;5073878;28;20077;-54
2021/12/29 05:10:30;;;;;;;43.05;18.85;;;7.60;99.90;;;;;;5094146;28;20036;-54
2021/12/29 05:12:56;;;;;;;46.55;20.02;;;7.70;99.90;;;;;;5111539;28;20148;-54
2021/12/29 05:15:21;;;;;;;40.33;18.10;;;7.70;99.90;;;;;;5110469;28;20063;-56
2021/12/29 05:17:47;;;;;;;41.33;18.87;;;7.70;99.90;;;;;;5090982;28;20349;-54
2021/12/29 05:20:13;;;;;;;41.37;17.27;;;7.60;99.90;;;;;;5094033;28;20427;-52
2021/12/29 05:22:39;;;;;;;42.08;18.02;;;7.60;99.90;;;;;;5091408;28;20448;-54
2021/12/29 05:25:05;;;;;;;38.47;17.77;;;7.60;99.90;;;;;;5091474;28;20043;-56
2021/12/29 05:27:30;;;;;;;41.10;18.58;;;7.60;99.90;;;;;;5108437;28;20044;-56
2021/12/29 05:29:56;;;;;;;43.13;19.55;;;7.60;99.90;;;;;;5109661;28;20035;-55
2021/12/29 05:32:22;;;;;;;43.95;19.42;;;7.60;99.90;;;;;;5094727;28;20085;-55
2021/12/29 05:34:47;;;;;;;51.53;21.67;;;7.60;99.90;;;;;;5090930;28;20115;-55
2021/12/29 05:37:13;;;;;;;53.47;21.07;;;7.60;99.90;;;;;;5104103;28;20128;-56
2021/12/29 05:39:38;;;;;;;52.03;22.37;;;7.60;99.90;;;;;;5114493;28;20073;-57
2021/12/29 05:42:04;;;;;;;50.60;22.47;;;7.60;99.90;;;;;;5108669;28;20040;-55
2021/12/29 05:44:30;;;;;;;62.30;22.83;;;7.60;99.90;;;;;;5113525;28;20051;-57
2021/12/29 05:46:55;;;;;;;53.60;22.33;;;7.60;99.90;;;;;;5108986;28;20492;-56
2021/12/29 05:49:21;;;;;;;57.60;23.73;;;7.60;99.90;;;;;;5110603;28;20047;-53
2021/12/29 05:51:46;;;;;;;56.50;22.93;;;7.60;99.90;;;;;;5101663;28;20072;-55
2021/12/29 05:54:12;;;;;;;51.30;21.90;;;7.60;99.90;;;;;;5090328;28;20054;-54
2021/12/29 05:56:38;;;;;;;48.80;22.23;;;7.60;99.90;;;;;;5096481;28;20488;-55
2021/12/29 05:59:04;;;;;;;58.50;23.83;;;7.70;99.90;;;;;;5110874;28;20650;-56
2021/12/29 06:01:31;;;;;;;52.17;19.90;;;7.60;99.90;;;;;;5109572;28;20027;-56
2021/12/29 06:03:57;;;;;;;43.80;18.73;;;7.70;99.90;;;;;;5110244;28;20047;-55
2021/12/29 06:06:23;;;;;;;50.85;20.40;;;7.70;99.90;;;;;;5107163;28;20126;-56
2021/12/29 06:08:48;;;;;;;48.80;18.97;;;7.70;99.90;;;;;;5090480;28;20371;-54
2021/12/29 06:11:14;;;;;;;46.27;19.23;;;7.70;99.90;;;;;;5073764;28;20044;-56
2021/12/29 06:13:39;;;;;;;50.80;18.77;;;7.70;99.90;;;;;;5052531;28;20047;-56
2021/12/29 06:16:05;;;;;;;44.23;17.50;;;7.70;99.90;;;;;;5069737;28;20037;-55
2021/12/29 06:18:31;;;;;;;40.97;17.30;;;7.70;99.90;;;;;;5107907;28;20027;-56
2021/12/29 06:20:57;;;;;;;38.30;16.37;;;7.70;99.90;;;;;;5106263;28;20043;-54
2021/12/29 06:23:22;;;;;;;34.53;15.00;;;7.70;99.90;;;;;;5106054;28;20505;-54
2021/12/29 06:25:48;;;;;;;42.95;17.98;;;7.70;99.90;;;;;;5110203;28;20027;-54
2021/12/29 06:28:14;;;;;;;40.83;17.40;;;7.70;99.90;;;;;;5076530;28;20043;-55
2021/12/29 06:30:40;;;;;;;43.33;16.60;;;7.70;99.90;;;;;;5090008;28;20032;-55
2021/12/29 06:33:06;;;;;;;34.43;15.67;;;7.70;99.90;;;;;;5094948;28;20495;-53
2021/12/29 06:35:31;;;;;;;41.72;16.88;;;7.70;99.90;;;;;;5097985;28;20569;-54
2021/12/29 06:37:57;;;;;;;39.28;15.80;;;7.70;99.90;;;;;;5101871;28;20115;-54
2021/12/29 06:40:23;;;;;;;39.97;15.17;;;7.70;99.90;;;;;;5090279;28;20040;-54
2021/12/29 06:42:48;;;;;;;37.73;15.70;;;7.70;99.90;;;;;;5071904;28;20397;-54
2021/12/29 06:45:14;;;;;;;44.00;15.23;;;7.70;99.90;;;;;;5090267;28;20036;-52
2021/12/29 06:47:40;;;;;;;40.70;14.03;;;7.70;99.90;;;;;;5089316;28;20036;-55
2021/12/29 06:50:06;;;;;;;36.90;14.60;;;7.70;99.90;;;;;;5095745;28;20191;-55
2021/12/29 06:52:32;;;;;;;34.85;13.13;;;7.70;99.90;;;;;;5089909;28;20044;-51
2021/12/29 06:54:58;;;;;;;33.78;14.38;;;7.70;99.90;;;;;;5090151;28;20516;-52
2021/12/29 06:57:23;;;;;;;40.92;15.95;;;7.70;99.90;;;;;;5089463;28;20036;-54
2021/12/29 06:59:49;;;;;;;43.17;14.13;;;7.70;99.90;;;;;;5090222;28;20034;-55
2021/12/29 07:02:15;;;;;;;48.07;16.17;;;7.70;99.90;;;;;;5090292;28;20092;-56
2021/12/29 07:04:41;;;;;;;46.28;16.63;;;7.70;99.90;;;;;;5090483;28;20071;-54
2021/12/29 07:07:07;;;;;;;47.67;16.33;;;7.70;99.90;;;;;;5092352;28;20036;-54
2021/12/29 07:09:33;;;;;;;53.97;17.43;;;7.70;99.90;;;;;;5097208;28;20071;-55
2021/12/29 07:11:59;;;;;;;57.85;17.02;;;7.70;99.90;;;;;;5095643;28;20580;-54
2021/12/29 07:14:24;;;;;;;57.22;17.10;;;7.70;99.90;;;;;;5093756;28;20039;-55
2021/12/29 07:16:51;;;;;;;58.75;16.83;;;7.70;99.90;;;;;;5093182;28;20140;-56
2021/12/29 07:19:18;;;;;;;59.22;18.52;;;7.70;99.90;;;;;;5111775;28;20096;-56
2021/12/29 07:21:44;;;;;;;54.63;18.65;;;7.70;99.90;;;;;;5112378;28;20042;-56
2021/12/29 07:24:10;;;;;;;64.13;17.73;;;7.70;99.90;;;;;;5097377;28;20032;-56
2021/12/29 07:26:36;;;;;;;67.13;18.02;;;7.70;99.90;;;;;;5094291;28;20277;-56
2021/12/29 07:29:03;;;;;;;59.03;18.27;;;7.70;99.90;;;;;;5101820;28;20111;-55
2021/12/29 07:31:29;;;;;;;64.40;18.42;;;7.70;99.90;;;;;;5078931;28;20044;-56
2021/12/29 07:33:55;;;;;;;59.97;17.77;;;7.70;99.90;;;;;;5093336;28;20039;-51
2021/12/29 07:36:21;;;;;;;73.07;20.67;;;7.70;99.90;;;;;;5074951;28;20454;-52
2021/12/29 07:38:46;;;;;;;62.63;19.37;;;7.70;99.90;;;;;;5103685;28;20035;-55
2021/12/29 07:41:13;;;;;;;65.70;19.37;;;7.70;99.90;;;;;;5112867;28;20078;-56
2021/12/29 07:43:39;;;;;;;64.97;18.23;;;7.70;99.90;;;;;;5103500;28;20032;-54
2021/12/29 07:46:06;;;;;;;67.47;18.05;;;7.70;99.90;;;;;;5086023;28;20032;-55
2021/12/29 07:48:33;;;;;;;54.08;17.60;;;7.70;99.90;;;;;;5104818;28;20119;-55
2021/12/29 07:51:00;;;;;;;61.10;19.17;;;7.70;99.90;;;;;;5057970;28;20044;-56
2021/12/29 07:53:26;;;;;;;68.57;19.52;;;7.70;99.90;;;;;;5093099;28;20115;-54
2021/12/29 07:55:52;;;;;;;66.50;18.05;;;7.80;99.90;;;;;;5092522;28;20120;-55
2021/12/29 07:58:18;;;;;;;63.13;18.83;;;7.80;99.90;;;;;;5099253;28;20052;-56
2021/12/29 08:00:44;;;;;;;58.80;18.63;;;7.80;99.90;;;;;;5110976;28;20036;-56
2021/12/29 08:03:14;;;;;;;68.47;21.25;;;7.70;99.90;;;;;;5112840;28;20400;-56
2021/12/29 08:05:40;;;;;;;61.55;20.10;;;7.70;99.90;;;;;;5101441;28;20048;-58
2021/12/29 08:08:06;;;;;;;64.15;20.45;;;7.80;99.90;;;;;;5091811;28;20040;-57
2021/12/29 08:10:36;;;;;;;58.92;18.83;;;7.80;99.90;;;;;;5080293;28;20118;-58
2021/12/29 08:13:04;;;;;;;72.13;20.30;;;7.80;99.90;;;;;;5092497;28;20040;-57
2021/12/29 08:15:32;;;;;;;74.47;18.52;;;7.80;99.90;;;;;;5099768;28;20032;-57
2021/12/29 08:17:58;;;;;;;71.75;20.38;;;7.80;99.90;;;;;;5092714;28;20047;-57
2021/12/29 08:20:25;;;;;;;66.22;18.77;;;7.80;99.90;;;;;;5108361;28;20035;-55
2021/12/29 08:22:52;;;;;;;62.25;19.08;;;7.80;99.90;;;;;;5111994;28;20031;-58
2021/12/29 08:25:18;;;;;;;64.45;18.25;;;7.80;99.90;;;;;;5108658;28;20439;-58
2021/12/29 08:27:44;;;;;;;73.13;19.92;;;7.80;99.90;;;;;;5093724;28;20042;-56
2021/12/29 08:30:11;;;;;;;70.75;18.73;;;7.80;99.90;;;;;;5094101;28;20451;-58
2021/12/29 08:32:37;;;;;;;60.83;19.27;;;7.80;99.90;;;;;;5074255;28;20040;-57
2021/12/29 08:35:03;;;;;;;65.07;16.80;;;7.90;99.90;;;;;;5092753;28;20093;-57
2021/12/29 08:37:29;;;;;;;56.25;17.42;;;7.90;99.90;;;;;;5073792;28;20047;-56
2021/12/29 08:39:55;;;;;;;54.07;16.43;;;7.80;99.90;;;;;;5092305;28;20120;-58
2021/12/29 08:42:22;;;;;;;37.53;14.43;;;7.90;99.90;;;;;;5073521;28;20055;-57
2021/12/29 08:44:48;;;;;;;;;;;7.90;99.90;;;;;;5092785;28;20044;-57
2021/12/29 08:47:13;;;;;;;42.00;12.57;;;7.90;99.90;;;;;;5073506;28;20366;-56
2021/12/29 08:49:39;;;;;;;37.30;13.02;;;7.90;99.90;;;;;;5094158;28;20042;-58
2021/12/29 08:52:05;;;;;;;37.60;12.70;;;8.00;99.90;;;;;;5089676;28;20056;-56
2021/12/29 08:54:31;;;;;;;39.03;11.57;;;8.00;99.90;;;;;;5097163;28;20081;-57
2021/12/29 08:56:57;;;;;;;30.15;11.55;;;8.00;99.90;;;;;;5090852;28;20035;-57
2021/12/29 08:59:22;;;;;;;29.00;10.87;;;8.00;99.90;;;;;;5091781;28;20036;-57
2021/12/29 09:01:48;;;;;;;27.47;10.23;;;8.10;99.90;;;;;;5091916;28;20046;-56
2021/12/29 09:04:15;;;;;;;35.20;11.68;;;8.10;99.90;;;;;;5091580;28;20040;-56
2021/12/29 09:06:41;;;;;;;25.48;10.75;;;8.10;99.90;;;;;;5091155;28;20399;-54
2021/12/29 09:09:07;;;;;;;23.80;10.20;;;8.10;99.90;;;;;;5091339;28;20107;-57
2021/12/29 09:11:32;;;;;;;42.03;10.70;;;8.10;99.90;;;;;;5091327;28;20055;-58
2021/12/29 09:13:59;;;;;;;34.93;11.73;;;8.10;99.90;;;;;;5091462;28;20331;-54
2021/12/29 09:16:28;;;;;;;34.55;11.88;;;8.10;99.90;;;;;;5090067;28;20270;-55
2021/12/29 09:18:54;;;;;;;35.45;12.68;;;8.10;99.90;;;;;;5090947;28;20035;-56
2021/12/29 09:21:20;;;;;;;36.97;12.90;;;8.20;99.90;;;;;;5091060;28;20466;-58
2021/12/29 09:23:46;;;;;;;;;;;8.20;99.90;;;;;;5091834;28;20036;-56
2021/12/29 09:26:14;;;;;;;40.58;14.88;;;8.20;99.90;;;;;;5071679;28;19962;-55
2021/12/29 09:28:41;;;;;;;41.88;14.48;;;8.30;99.90;;;;;;5090695;28;20036;-53
2021/12/29 09:31:08;;;;;;;42.97;13.68;;;8.30;99.90;;;;;;5063458;28;20115;-53
2021/12/29 09:33:34;;;;;;;40.90;16.15;;;8.30;99.90;;;;;;5079193;28;20140;-53
2021/12/29 09:36:03;;;;;;;45.08;14.15;;;8.30;99.90;;;;;;5070559;28;20040;-54
2021/12/29 09:38:35;;;;;;;43.15;15.15;;;8.30;99.90;;;;;;5053835;28;20048;-55
2021/12/29 09:41:02;;;;;;;45.03;15.75;;;8.30;99.90;;;;;;5075831;28;20045;-55
2021/12/29 09:43:28;;;;;;;44.08;15.23;;;8.30;99.90;;;;;;5051561;28;20580;-55
2021/12/29 09:45:54;;;;;;;38.80;14.02;;;8.30;99.90;;;;;;5052825;28;20131;-53
2021/12/29 09:48:20;;;;;;;41.80;14.13;;;8.40;99.90;;;;;;5070343;28;20103;-53
2021/12/29 09:50:47;;;;;;;50.33;15.40;;;8.40;99.90;;;;;;5078501;28;21090;-52
2021/12/29 09:53:14;;;;;;;52.03;16.30;;;8.40;99.90;;;;;;5068915;28;20128;-55
2021/12/29 09:55:40;;;;;;;;;;;8.40;99.90;;;;;;5070162;28;20105;-52
2021/12/29 09:58:07;;;;;;;60.58;16.83;;;8.40;99.90;;;;;;5069862;28;19920;-52
2021/12/29 10:00:40;;;;;;;72.32;19.30;;;8.40;99.90;;;;;;5069607;28;20047;-51
2021/12/29 10:03:08;;;;;;;65.60;18.67;;;8.40;99.90;;;;;;5076015;28;20036;-51
2021/12/29 10:05:35;;;;;;;68.63;19.65;;;8.40;99.90;;;;;;5051289;28;20101;-53
2021/12/29 10:08:08;;;;;;;67.22;19.85;;;8.40;99.90;;;;;;5075539;28;20044;-50
2021/12/29 10:10:36;;;;;;;52.95;17.90;;;8.40;99.90;;;;;;5075442;28;20043;-50
2021/12/29 10:13:03;;;;;;;64.88;18.02;;;8.40;99.90;;;;;;5079116;28;20045;-50
2021/12/29 10:15:37;;;;;;;;;;;8.40;99.90;;;;;;5077093;28;20514;-53
2021/12/29 10:18:05;;;;;;;57.88;16.90;;;8.40;99.90;;;;;;5057265;28;19920;-53
2021/12/29 10:20:30;;;;;;;47.10;16.08;;;8.50;99.90;;;;;;5051233;28;20504;-51
2021/12/29 10:22:58;;;;;;;46.83;17.23;;;8.50;99.90;;;;;;5069285;28;20051;-54
2021/12/29 10:25:24;;;;;;;49.53;16.20;;;8.50;99.90;;;;;;5075899;28;20134;-50
2021/12/29 10:27:51;;;;;;;51.70;17.27;;;8.50;99.90;;;;;;5068376;28;20043;-54
2021/12/29 10:30:27;;;;;;;46.75;17.13;;;8.50;99.90;;;;;;5069622;28;20059;-54
2021/12/29 10:32:55;;;;;;;34.08;14.73;;;8.50;99.90;;;;;;5076358;28;20128;-53
2021/12/29 10:35:31;;;;;;;46.25;15.73;;;8.50;99.90;;;;;;5069410;28;20193;-51
2021/12/29 10:38:21;;;;;;;40.53;14.97;;;8.50;99.90;;;;;;5076073;28;20032;-55
2021/12/29 10:40:48;;;;;;;35.45;13.75;;;8.50;99.90;;;;;;5071357;28;20290;-53
2021/12/29 10:43:15;;;;;;;28.30;13.00;;;8.50;99.90;;;;;;5080433;28;20113;-54
2021/12/29 10:45:44;;;;;;;27.48;12.07;;;8.50;99.90;;;;;;5075263;28;20512;-55
2021/12/29 10:48:21;;;;;;;35.50;12.18;;;8.50;99.90;;;;;;5076862;28;20032;-56
2021/12/29 10:50:57;;;;;;;27.02;12.40;;;8.50;99.90;;;;;;5073206;28;20131;-54
2021/12/29 10:53:23;;;;;;;25.27;11.30;;;8.50;99.90;;;;;;5072949;28;20038;-53
2021/12/29 10:55:49;;;;;;;22.70;11.45;;;8.50;99.90;;;;;;5037637;28;20055;-57
2021/12/29 10:58:18;;;;;;;28.33;12.25;;;8.50;99.90;;;;;;5073003;28;20041;-56
2021/12/29 11:00:55;;;;;;;26.58;11.55;;;8.50;99.90;;;;;;5072732;28;20032;-59
2021/12/29 11:03:22;;;;;;;24.60;11.15;;;8.60;99.90;;;;;;5055349;28;20047;-58
2021/12/29 11:05:58;;;;;;;36.78;12.38;;;8.50;99.90;;;;;;5054355;28;20055;-54
2021/12/29 11:08:29;;;;;;;26.55;12.23;;;8.60;99.90;;;;;;5072945;28;20048;-58
2021/12/29 11:11:02;;;;;;;32.65;11.38;;;8.60;99.90;;;;;;5075601;28;20041;-57
2021/12/29 11:13:30;;;;;;;28.77;12.15;;;8.60;99.90;;;;;;5072889;28;20083;-54
2021/12/29 11:15:58;;;;;;;43.10;13.77;;;8.60;99.90;;;;;;5079538;28;20059;-57
2021/12/29 11:18:24;;;;;;;35.40;12.40;;;8.60;99.90;;;;;;5072810;28;20036;-56
2021/12/29 11:20:57;;;;;;;31.48;12.95;;;8.70;99.90;;;;;;5072437;28;20036;-58
2021/12/29 11:23:23;;;;;;;33.85;12.15;;;8.70;99.90;;;;;;5072751;28;20047;-58
2021/12/29 11:25:51;;;;;;;29.77;13.60;;;8.70;99.90;;;;;;5060336;28;20087;-57
2021/12/29 11:47:05;;;;;;;35.45;13.55;;;8.90;99.90;;;;;;5076498;28;20035;-59
2021/12/29 11:49:32;;;;;;;28.95;12.65;;;8.90;99.90;;;;;;5079846;28;20028;-58
2021/12/29 11:52:02;;;;;;;38.53;13.85;;;8.90;99.90;;;;;;5070673;28;20484;-58
2021/12/29 11:54:43;;;;;;;42.78;15.00;;;8.90;99.90;;;;;;5075064;28;20123;-58
2021/12/29 11:57:14;;;;;;;38.08;12.52;;;8.90;99.90;;;;;;5088974;28;20164;-54
2021/12/29 11:59:41;;;;;;;42.53;13.18;;;8.90;99.90;;;;;;5088704;28;20040;-58
2021/12/29 12:02:06;;;;;;;39.00;12.23;;;8.90;99.90;;;;;;5085501;28;20372;-57
2021/12/29 12:04:32;;;;;;;29.58;11.95;;;8.90;99.90;;;;;;5068401;28;20078;-58
2021/12/29 12:07:05;;;;;;;33.75;12.60;;;8.90;99.90;;;;;;5069599;28;20047;-58
2021/12/29 12:09:45;;;;;;;29.15;11.80;;;8.90;99.90;;;;;;5088056;28;20051;-57
2021/12/29 12:12:12;;;;;;;35.65;11.75;;;8.90;99.90;;;;;;5088262;28;20420;-56
2021/12/29 12:14:47;;;;;;;29.60;11.50;;;8.90;99.90;;;;;;5068556;28;20416;-58
2021/12/29 12:17:19;;;;;;;30.42;12.43;;;8.90;99.90;;;;;;5087763;28;20044;-55
2021/12/29 12:19:46;;;;;;;44.08;13.80;;;8.90;99.90;;;;;;5078529;28;20033;-57
2021/12/29 12:22:19;;;;;;;31.58;13.25;;;8.90;99.90;;;;;;5062620;28;20082;-58
2021/12/29 12:24:50;;;;;;;33.30;12.88;;;8.90;99.90;;;;;;5055178;28;20455;-58
2021/12/29 12:27:29;;;;;;;33.15;14.32;;;8.80;99.90;;;;;;5087688;28;20044;-55
2021/12/29 12:30:17;;;;;;;37.20;16.20;;;8.80;99.90;;;;;;5089258;28;20424;-55
2021/12/29 12:32:44;;;;;;;45.38;15.55;;;8.80;99.90;;;;;;5096596;28;20031;-55
2021/12/29 12:35:11;;;;;;;30.25;14.40;;;8.80;99.90;;;;;;5088903;28;20520;-55
2021/12/29 12:37:45;;;;;;;31.25;14.80;;;8.80;99.90;;;;;;5087913;28;20036;-56
2021/12/29 12:40:22;;;;;;;40.42;18.20;;;8.80;99.90;;;;;;5094481;28;20638;-56
2021/12/29 12:43:01;;;;;;;42.45;16.27;;;8.80;99.90;;;;;;5089184;28;20051;-58
2021/12/29 12:45:33;;;;;;;39.35;16.55;;;8.80;99.90;;;;;;5073148;28;20044;-58
2021/12/29 12:48:11;;;;;;;34.47;16.90;;;8.80;99.90;;;;;;5078913;28;20047;-55
2021/12/29 12:50:39;;;;;;;37.45;16.45;;;8.80;99.90;;;;;;5087974;28;20032;-57
2021/12/29 12:53:06;;;;;;;31.17;16.40;;;8.80;99.90;;;;;;5079389;28;20066;-56
2021/12/29 12:55:44;;;;;;;41.50;16.30;;;8.80;99.90;;;;;;5084951;28;20040;-57
2021/12/29 12:58:11;;;;;;;31.55;14.93;;;8.80;99.90;;;;;;5097020;28;20169;-57
2021/12/29 13:00:43;;;;;;;27.50;15.60;;;8.80;99.90;;;;;;5089345;28;20397;-56
2021/12/29 13:03:09;;;;;;;27.38;15.77;;;8.80;99.90;;;;;;5085187;28;20419;-56